createdAt,value
2018-07-26T00:00:43.867Z,87.90
2018-07-26T00:03:13.000Z,87.62
2018-07-26T00:05:42.189Z,88.00
2018-07-26T00:08:11.392Z,87.60
2018-07-26T00:10:40.540Z,87.40
2018-07-26T00:13:10.175Z,87.88
2018-07-26T00:15:39.361Z,88.03
2018-07-26T00:18:08.558Z,88.10
2018-07-26T00:20:37.742Z,87.91
2018-07-26T00:23:07.185Z,88.77
2018-07-26T00:25:36.328Z,88.54
2018-07-26T00:28:05.697Z,89.02
2018-07-26T00:30:34.940Z,89.46
2018-07-26T00:33:04.180Z,89.57
2018-07-26T00:35:33.376Z,90.59
2018-07-26T00:38:02.557Z,90.74
2018-07-26T00:40:32.238Z,91.11
2018-07-26T00:43:01.462Z,91.42
2018-07-26T00:45:30.667Z,91.67
2018-07-26T00:47:59.808Z,92.01
2018-07-26T00:50:29.007Z,92.03
2018-07-26T00:52:58.153Z,91.94
2018-07-26T00:55:27.309Z,92.27
2018-07-26T00:57:56.666Z,92.20
2018-07-26T01:00:25.818Z,92.21
2018-07-26T01:02:54.997Z,92.38
2018-07-26T01:05:24.179Z,92.79
2018-07-26T01:07:53.329Z,92.76
2018-07-26T01:10:22.493Z,92.74
2018-07-26T01:12:51.726Z,93.21
2018-07-26T01:15:20.882Z,93.16
2018-07-26T01:17:50.955Z,93.54
2018-07-26T01:20:20.297Z,93.52
2018-07-26T01:22:49.467Z,93.32
2018-07-26T01:25:18.616Z,93.16
2018-07-26T01:27:47.923Z,93.53
2018-07-26T01:30:17.112Z,93.95
2018-07-26T01:32:46.286Z,93.87
2018-07-26T01:35:15.532Z,94.55
2018-07-26T01:37:44.700Z,94.21
2018-07-26T01:40:13.886Z,94.68
2018-07-26T01:42:54.040Z,94.24
2018-07-26T01:45:23.208Z,94.89
2018-07-26T01:47:52.379Z,94.82
2018-07-26T01:50:21.585Z,95.09
2018-07-26T01:52:50.721Z,94.83
2018-07-26T01:55:19.891Z,95.34
2018-07-26T01:57:49.089Z,95.40
2018-07-26T02:00:18.261Z,95.25
2018-07-26T02:02:47.409Z,95.52
2018-07-26T02:05:16.723Z,95.39
2018-07-26T02:07:45.933Z,95.78
2018-07-26T02:10:15.097Z,95.61
2018-07-26T02:12:44.266Z,95.82
2018-07-26T02:15:13.422Z,96.11
2018-07-26T02:17:42.623Z,96.06
2018-07-26T02:20:11.837Z,96.25
2018-07-26T02:22:41.077Z,95.88
2018-07-26T02:25:11.363Z,96.07
2018-07-26T02:27:40.554Z,95.84
2018-07-26T02:30:09.817Z,95.82
2018-07-26T02:32:39.009Z,95.58
2018-07-26T02:35:08.397Z,95.52
2018-07-26T02:37:37.686Z,96.03
2018-07-26T02:40:07.024Z,96.25
2018-07-26T02:42:36.708Z,97.03
2018-07-26T02:45:06.116Z,96.54
2018-07-26T02:47:35.326Z,96.90
2018-07-26T02:50:04.567Z,97.21
2018-07-26T02:52:33.804Z,97.35
2018-07-26T02:55:03.023Z,97.12
2018-07-26T02:57:32.529Z,97.59
2018-07-26T03:00:01.665Z,97.91
2018-07-26T03:02:30.813Z,97.37
2018-07-26T03:04:59.996Z,97.54
2018-07-26T03:07:29.172Z,97.20
2018-07-26T03:09:58.356Z,97.22
2018-07-26T03:12:27.769Z,97.32
2018-07-26T03:14:56.951Z,97.27
2018-07-26T03:17:26.130Z,97.60
2018-07-26T03:19:55.322Z,97.52
2018-07-26T03:22:24.513Z,97.17
2018-07-26T03:24:53.735Z,97.72
2018-07-26T03:27:22.953Z,97.19
2018-07-26T03:29:52.120Z,97.08
2018-07-26T03:32:21.230Z,97.22
2018-07-26T03:34:50.504Z,97.21
2018-07-26T03:37:19.652Z,97.42
2018-07-26T03:39:48.875Z,97.36
2018-07-26T03:42:18.129Z,97.21
2018-07-26T03:44:47.317Z,97.70
2018-07-26T03:47:16.491Z,97.64
2018-07-26T03:49:45.665Z,97.51
2018-07-26T03:52:15.353Z,97.54
2018-07-26T03:54:44.521Z,97.18
2018-07-26T03:57:13.747Z,97.74
2018-07-26T03:59:42.906Z,97.37
2018-07-26T04:02:12.166Z,97.67
2018-07-26T04:04:41.332Z,97.66
2018-07-26T04:07:11.489Z,97.85
2018-07-26T04:09:40.665Z,97.88
2018-07-26T04:12:09.888Z,97.61
2018-07-26T04:14:39.038Z,97.85
2018-07-26T04:17:08.399Z,97.95
2018-07-26T04:19:37.567Z,97.92
2018-07-26T04:22:06.956Z,97.35
2018-07-26T04:24:36.151Z,97.72
2018-07-26T04:27:05.389Z,97.27
2018-07-26T04:29:34.534Z,97.53
2018-07-26T04:32:03.775Z,97.99
2018-07-26T04:34:32.938Z,97.84
2018-07-26T04:37:02.114Z,97.88
2018-07-26T04:39:31.238Z,97.25
2018-07-26T04:42:00.436Z,97.37
2018-07-26T04:44:29.593Z,96.65
2018-07-26T04:46:58.767Z,97.10
2018-07-26T04:49:27.972Z,96.58
2018-07-26T04:51:57.159Z,96.05
2018-07-26T04:54:26.320Z,95.77
2018-07-26T04:56:55.513Z,95.44
2018-07-26T04:59:24.655Z,95.43
2018-07-26T05:01:53.821Z,96.10
2018-07-26T05:04:23.017Z,95.67
2018-07-26T05:06:52.259Z,95.53
2018-07-26T05:09:21.423Z,95.81
2018-07-26T05:11:50.612Z,95.39
2018-07-26T05:14:20.212Z,95.23
2018-07-26T05:16:49.385Z,94.41
2018-07-26T05:19:18.579Z,93.17
2018-07-26T05:21:47.762Z,93.01
2018-07-26T05:24:16.928Z,92.31
2018-07-26T05:26:46.150Z,92.14
2018-07-26T05:29:15.364Z,91.96
2018-07-26T05:31:45.869Z,91.24
2018-07-26T05:34:15.065Z,89.83
2018-07-26T05:36:44.310Z,88.87
2018-07-26T05:39:13.487Z,89.79
2018-07-26T05:41:42.721Z,88.55
2018-07-26T05:44:12.012Z,88.77
2018-07-26T05:46:41.194Z,88.24
2018-07-26T05:49:10.407Z,87.01
2018-07-26T05:51:39.624Z,86.90
2018-07-26T05:54:08.840Z,85.39
2018-07-26T05:56:37.974Z,85.72
2018-07-26T05:59:07.168Z,85.19
2018-07-26T06:01:36.394Z,84.52
2018-07-26T06:04:05.669Z,85.10
2018-07-26T06:06:34.871Z,84.07
2018-07-26T06:09:06.717Z,84.72
2018-07-26T06:11:35.907Z,84.31
2018-07-26T06:14:05.484Z,84.32
2018-07-26T06:16:34.641Z,83.93
2018-07-26T06:19:03.869Z,83.34
2018-07-26T06:21:33.075Z,82.79
2018-07-26T06:24:02.704Z,83.72
2018-07-26T06:26:31.910Z,84.86
2018-07-26T06:29:01.056Z,85.04
2018-07-26T06:31:37.708Z,85.86
2018-07-26T06:34:07.517Z,84.63
2018-07-26T06:36:36.671Z,86.08
2018-07-26T06:39:09.386Z,83.57
2018-07-26T06:41:38.606Z,84.03
2018-07-26T06:44:07.819Z,83.98
2018-07-26T06:46:37.175Z,82.40
2018-07-26T06:49:07.270Z,82.07
2018-07-26T06:51:37.038Z,82.85
2018-07-26T06:54:06.242Z,81.31
2018-07-26T06:56:37.037Z,81.11
2018-07-26T06:59:06.493Z,79.92
2018-07-26T07:01:35.734Z,80.92
2018-07-26T07:04:04.912Z,80.14
2018-07-26T07:06:34.136Z,80.41
2018-07-26T07:09:03.564Z,81.56
2018-07-26T07:11:32.789Z,79.86
2018-07-26T07:14:01.946Z,79.82
2018-07-26T07:16:31.298Z,80.64
2018-07-26T07:19:02.029Z,78.35
2018-07-26T07:21:31.294Z,79.27
2018-07-26T07:24:00.413Z,78.71
2018-07-26T07:26:29.548Z,78.26
2018-07-26T07:28:58.687Z,78.52
2018-07-26T07:31:27.948Z,78.37
2018-07-26T07:33:57.217Z,77.43
2018-07-26T07:36:26.389Z,76.58
2018-07-26T07:38:55.590Z,76.00
2018-07-26T07:41:24.738Z,75.17
2018-07-26T07:43:53.914Z,77.01
2018-07-26T07:46:23.117Z,77.07
2018-07-26T07:48:52.265Z,74.13
2018-07-26T07:51:21.414Z,74.87
2018-07-26T07:53:50.603Z,72.74
2018-07-26T07:56:19.727Z,72.61
2018-07-26T07:58:48.864Z,72.94
2018-07-26T08:01:18.120Z,73.26
2018-07-26T08:03:47.295Z,73.30
2018-07-26T08:06:16.471Z,73.28
2018-07-26T08:08:45.638Z,71.66
2018-07-26T08:11:14.823Z,69.77
2018-07-26T08:13:43.921Z,70.32
2018-07-26T08:16:13.073Z,70.82
2018-07-26T08:18:42.229Z,70.46
2018-07-26T08:21:11.682Z,71.62
2018-07-26T08:23:40.856Z,68.91
2018-07-26T08:26:10.031Z,69.50
2018-07-26T08:28:39.157Z,67.67
2018-07-26T08:31:08.433Z,66.04
2018-07-26T08:33:37.612Z,65.45
2018-07-26T08:36:06.847Z,65.63
2018-07-26T08:38:36.029Z,68.79
2018-07-26T08:41:05.254Z,65.54
2018-07-26T08:43:34.501Z,66.52
2018-07-26T08:46:03.669Z,63.46
2018-07-26T08:48:32.830Z,62.74
2018-07-26T08:51:01.981Z,64.52
2018-07-26T08:53:31.182Z,64.67
2018-07-26T08:56:00.369Z,64.60
2018-07-26T08:58:29.959Z,63.02
2018-07-26T09:00:59.155Z,64.78
2018-07-26T09:03:28.378Z,60.28
2018-07-26T09:05:58.437Z,58.89
2018-07-26T09:08:27.615Z,58.74
2018-07-26T09:10:56.906Z,60.02
2018-07-26T09:13:26.163Z,58.97
2018-07-26T09:15:55.284Z,58.13
2018-07-26T09:18:24.445Z,58.66
2018-07-26T09:20:53.648Z,58.80
2018-07-26T09:23:22.827Z,57.64
2018-07-26T09:25:51.982Z,56.69
2018-07-26T09:28:21.152Z,57.29
2018-07-26T09:30:50.369Z,59.06
2018-07-26T09:33:19.629Z,58.51
2018-07-26T09:35:49.426Z,55.19
2018-07-26T09:38:19.506Z,56.30
2018-07-26T09:40:48.671Z,57.17
2018-07-26T09:43:17.829Z,56.46
2018-07-26T09:45:47.045Z,56.35
2018-07-26T09:48:16.209Z,56.58
2018-07-26T09:50:45.342Z,53.48
2018-07-26T09:53:14.504Z,53.83
2018-07-26T09:55:43.661Z,55.73
2018-07-26T09:58:12.902Z,55.34
2018-07-26T10:00:47.345Z,52.75
2018-07-26T10:03:16.490Z,51.95
2018-07-26T10:05:45.626Z,51.88
2018-07-26T10:08:14.820Z,53.10
2018-07-26T10:10:43.943Z,54.45
2018-07-26T10:13:13.089Z,54.32
2018-07-26T10:15:42.245Z,52.97
2018-07-26T10:18:11.420Z,53.19
2018-07-26T10:20:40.575Z,55.88
2018-07-26T10:23:10.237Z,53.39
2018-07-26T10:25:39.382Z,53.68
2018-07-26T10:28:08.593Z,55.68
2018-07-26T10:30:37.845Z,51.91
2018-07-26T10:33:07.269Z,54.52
2018-07-26T10:35:36.496Z,52.26
2018-07-26T10:38:05.669Z,53.54
2018-07-26T10:40:34.820Z,56.65
2018-07-26T10:43:04.003Z,56.85
2018-07-26T10:45:33.262Z,56.62
2018-07-26T10:48:02.401Z,55.31
2018-07-26T10:50:31.544Z,56.09
2018-07-26T10:53:00.678Z,54.36
2018-07-26T10:55:29.845Z,54.92
2018-07-26T10:57:59.018Z,52.62
2018-07-26T11:00:28.315Z,54.58
2018-07-26T11:02:57.496Z,54.03
2018-07-26T11:05:26.711Z,55.19
2018-07-26T11:07:55.881Z,55.33
2018-07-26T11:10:25.085Z,56.08
2018-07-26T11:12:54.628Z,54.34
2018-07-26T11:15:28.737Z,52.35
2018-07-26T11:17:58.093Z,50.84
2018-07-26T11:20:27.241Z,51.79
2018-07-26T11:22:56.674Z,48.29
2018-07-26T11:25:25.876Z,51.37
2018-07-26T11:27:55.626Z,50.42
2018-07-26T11:30:25.113Z,50.93
2018-07-26T11:32:54.366Z,51.54
2018-07-26T11:35:23.482Z,51.10
2018-07-26T11:37:52.779Z,51.98
2018-07-26T11:40:21.894Z,52.30
2018-07-26T11:42:51.129Z,53.67
2018-07-26T11:45:20.370Z,52.86
2018-07-26T11:47:49.536Z,52.72
2018-07-26T11:50:18.764Z,54.86
2018-07-26T11:52:47.988Z,53.11
2018-07-26T11:55:17.169Z,52.40
2018-07-26T11:57:46.433Z,52.60
2018-07-26T12:00:15.636Z,55.11
2018-07-26T12:02:44.786Z,57.37
2018-07-26T12:05:13.980Z,59.11
2018-07-26T12:07:43.249Z,60.29
2018-07-26T12:10:12.441Z,59.49
2018-07-26T12:12:41.661Z,60.38
2018-07-26T12:15:11.413Z,61.46
2018-07-26T12:17:40.636Z,60.88
2018-07-26T12:20:09.814Z,60.88
2018-07-26T12:22:38.979Z,60.94
2018-07-26T12:25:08.441Z,60.09
2018-07-26T12:27:37.576Z,59.71
2018-07-26T12:30:07.337Z,58.56
2018-07-26T12:32:36.813Z,59.05
2018-07-26T12:35:05.970Z,59.33
2018-07-26T12:37:35.205Z,58.40
2018-07-26T12:40:04.873Z,56.65
2018-07-26T12:42:34.051Z,56.16
2018-07-26T12:45:03.233Z,55.51
2018-07-26T12:47:32.489Z,56.14
2018-07-26T12:50:01.614Z,56.38
2018-07-26T12:52:30.769Z,54.70
2018-07-26T12:54:59.943Z,52.43
2018-07-26T12:57:29.074Z,52.58
2018-07-26T12:59:58.237Z,53.03
2018-07-26T13:02:27.489Z,53.14
2018-07-26T13:04:56.637Z,51.38
2018-07-26T13:07:25.820Z,50.39
2018-07-26T13:09:55.006Z,50.38
2018-07-26T13:12:24.295Z,50.53
2018-07-26T13:14:53.501Z,51.16
2018-07-26T13:17:22.588Z,50.31
2018-07-26T13:19:52.196Z,51.73
2018-07-26T13:22:21.378Z,48.84
2018-07-26T13:24:50.985Z,44.21
2018-07-26T13:27:20.192Z,47.30
2018-07-26T13:29:49.370Z,49.93
2018-07-26T13:32:18.557Z,47.10
2018-07-26T13:34:47.780Z,48.59
2018-07-26T13:37:16.982Z,49.05
2018-07-26T13:39:46.963Z,53.75
2018-07-26T13:42:16.193Z,56.71
2018-07-26T13:44:45.446Z,56.30
2018-07-26T13:47:14.624Z,55.74
2018-07-26T13:49:43.863Z,57.56
2018-07-26T13:52:13.046Z,58.56
2018-07-26T13:54:42.289Z,57.87
2018-07-26T13:57:11.818Z,59.74
2018-07-26T13:59:41.116Z,63.81
2018-07-26T14:02:10.309Z,67.87
2018-07-26T14:04:39.429Z,68.92
2018-07-26T14:07:08.875Z,72.02
2018-07-26T14:09:38.096Z,74.19
2018-07-26T14:12:07.345Z,75.63
2018-07-26T14:14:36.535Z,75.21
2018-07-26T14:17:05.907Z,73.89
2018-07-26T14:19:35.028Z,78.47
2018-07-26T14:22:04.376Z,79.12
2018-07-26T14:24:33.588Z,79.77
2018-07-26T14:27:02.735Z,82.13
2018-07-26T14:29:31.971Z,82.12
2018-07-26T14:32:01.076Z,82.20
2018-07-26T14:34:30.218Z,81.20
2018-07-26T14:36:59.400Z,82.96
2018-07-26T14:39:28.533Z,83.32
2018-07-26T14:41:57.721Z,84.79
2018-07-26T14:44:26.875Z,84.88
2018-07-26T14:46:56.158Z,85.96
2018-07-26T14:49:25.299Z,87.09
2018-07-26T14:51:54.518Z,87.93
2018-07-26T14:54:23.579Z,87.88
2018-07-26T14:56:52.734Z,87.80
2018-07-26T14:59:21.904Z,87.41
2018-07-26T15:01:51.044Z,86.84
2018-07-26T15:04:20.358Z,84.34
2018-07-26T15:06:49.537Z,85.44
2018-07-26T15:09:18.659Z,87.08
2018-07-26T15:11:47.991Z,88.14
2018-07-26T15:14:17.593Z,88.75
2018-07-26T15:16:47.096Z,88.94
2018-07-26T15:19:16.225Z,88.03
2018-07-26T15:21:45.433Z,87.78
2018-07-26T15:24:14.617Z,86.96
2018-07-26T15:26:43.806Z,88.52
2018-07-26T15:29:12.969Z,88.42
2018-07-26T15:31:42.101Z,87.17
2018-07-26T15:34:11.257Z,84.98
2018-07-26T15:36:40.399Z,85.22
2018-07-26T15:39:10.494Z,86.86
2018-07-26T15:41:45.525Z,86.02
2018-07-26T15:44:15.945Z,86.06
2018-07-26T15:46:45.108Z,86.26
2018-07-26T15:49:14.287Z,85.47
2018-07-26T15:51:43.434Z,84.11
2018-07-26T15:54:12.588Z,84.13
2018-07-26T15:56:41.811Z,84.91
2018-07-26T15:59:10.956Z,85.62
2018-07-26T16:01:40.133Z,84.76
2018-07-26T16:04:09.373Z,85.34
2018-07-26T16:06:38.521Z,84.81
2018-07-26T16:09:09.850Z,85.17
2018-07-26T16:11:39.286Z,85.70
2018-07-26T16:14:09.169Z,85.70
2018-07-26T16:16:38.373Z,85.29
2018-07-26T16:19:07.703Z,85.18
2018-07-26T16:21:36.852Z,84.55
2018-07-26T16:24:06.069Z,83.46
2018-07-26T16:26:35.246Z,83.43
2018-07-26T16:29:04.537Z,83.41
2018-07-26T16:31:33.752Z,82.65
2018-07-26T16:34:02.974Z,83.27
2018-07-26T16:36:32.123Z,83.44
2018-07-26T16:39:01.261Z,82.44
2018-07-26T16:41:30.455Z,82.20
2018-07-26T16:43:59.624Z,81.28
2018-07-26T16:46:28.782Z,81.03
2018-07-26T16:48:57.954Z,80.84
2018-07-26T16:51:28.065Z,80.98
2018-07-26T16:53:57.305Z,81.63
2018-07-26T16:56:26.524Z,81.77
2018-07-26T16:58:55.763Z,81.48
2018-07-26T17:01:24.828Z,81.01
2018-07-26T17:03:54.009Z,80.99
2018-07-26T17:06:23.179Z,80.90
2018-07-26T17:08:52.325Z,80.84
2018-07-26T17:11:21.508Z,80.83
2018-07-26T17:13:50.707Z,80.49
2018-07-26T17:16:19.940Z,81.23
2018-07-26T17:18:49.188Z,81.28
2018-07-26T17:21:18.340Z,81.30
2018-07-26T17:23:47.494Z,81.57
2018-07-26T17:26:16.653Z,82.13
2018-07-26T17:28:45.836Z,83.19
2018-07-26T17:31:14.964Z,83.71
2018-07-26T17:33:44.161Z,84.09
2018-07-26T17:36:13.396Z,84.80
2018-07-26T17:38:42.564Z,85.11
2018-07-26T17:41:11.867Z,85.90
2018-07-26T17:43:41.012Z,85.66
2018-07-26T17:46:10.149Z,87.34
2018-07-26T17:48:39.303Z,86.81
2018-07-26T17:51:08.649Z,86.69
2018-07-26T17:53:37.744Z,86.72
2018-07-26T17:56:06.960Z,87.62
2018-07-26T17:58:36.161Z,86.17
2018-07-26T18:01:05.397Z,85.79
2018-07-26T18:03:34.566Z,85.67
2018-07-26T18:06:03.793Z,85.42
2018-07-26T18:08:32.924Z,85.91
2018-07-26T18:11:02.101Z,86.54
2018-07-26T18:13:31.593Z,85.78
2018-07-26T18:16:00.735Z,86.10
2018-07-26T18:18:30.012Z,85.92
2018-07-26T18:20:59.137Z,85.50
2018-07-26T18:23:28.280Z,84.62
2018-07-26T18:25:57.625Z,84.42
2018-07-26T18:28:26.758Z,84.37
2018-07-26T18:30:56.012Z,85.90
2018-07-26T18:33:25.224Z,86.27
2018-07-26T18:35:54.420Z,86.35
2018-07-26T18:38:23.626Z,86.66
2018-07-26T18:40:52.731Z,86.40
2018-07-26T18:43:22.186Z,86.30
2018-07-26T18:45:51.290Z,88.33
2018-07-26T18:48:20.452Z,88.79
2018-07-26T18:50:51.201Z,88.47
2018-07-26T18:53:20.398Z,87.70
2018-07-26T18:55:49.612Z,87.27
2018-07-26T18:58:18.951Z,87.91
2018-07-26T19:00:48.072Z,88.51
2018-07-26T19:03:17.257Z,88.15
2018-07-26T19:05:46.545Z,88.75
2018-07-26T19:08:15.746Z,89.10
2018-07-26T19:10:44.958Z,89.99
2018-07-26T19:13:14.137Z,90.54
2018-07-26T19:15:43.257Z,90.19
2018-07-26T19:18:12.407Z,89.62
2018-07-26T19:20:41.596Z,89.99
2018-07-26T19:23:12.208Z,90.28
2018-07-26T19:25:41.394Z,90.85
2018-07-26T19:28:10.526Z,90.75
2018-07-26T19:30:41.246Z,90.16
2018-07-26T19:33:10.501Z,89.81
2018-07-26T19:35:40.659Z,89.78
2018-07-26T19:38:10.359Z,89.80
2018-07-26T19:40:39.622Z,88.90
2018-07-26T19:43:09.114Z,89.66
2018-07-26T19:45:38.236Z,89.69
2018-07-26T19:48:07.589Z,91.27
2018-07-26T19:50:36.813Z,92.81
2018-07-26T19:53:06.036Z,92.98
2018-07-26T19:55:35.426Z,93.64
2018-07-26T19:58:04.576Z,92.84
2018-07-26T20:00:33.877Z,93.34
2018-07-26T20:03:04.954Z,93.30
2018-07-26T20:05:34.139Z,93.01
2018-07-26T20:08:03.330Z,94.47
2018-07-26T20:10:32.503Z,95.48
2018-07-26T20:13:01.682Z,95.95
2018-07-26T20:15:30.910Z,96.71
2018-07-26T20:18:00.116Z,97.87
2018-07-26T20:20:29.326Z,98.40
2018-07-26T20:22:58.550Z,99.02
2018-07-26T20:25:27.749Z,98.57
2018-07-26T20:27:57.009Z,98.34
2018-07-26T20:30:26.197Z,98.71
2018-07-26T20:32:55.408Z,98.37
2018-07-26T20:35:24.544Z,98.47
2018-07-26T20:37:53.760Z,98.45
2018-07-26T20:40:22.949Z,99.43
2018-07-26T20:42:52.122Z,98.77
2018-07-26T20:45:21.293Z,99.41
2018-07-26T20:47:50.456Z,99.75
2018-07-26T20:50:19.760Z,99.73
2018-07-26T20:52:48.932Z,100.00
2018-07-26T20:55:18.117Z,99.75
2018-07-26T20:57:47.268Z,99.82
2018-07-26T21:00:16.962Z,99.70
2018-07-26T21:02:46.913Z,99.88
2018-07-26T21:05:16.886Z,99.73
2018-07-26T21:07:45.993Z,99.04
2018-07-26T21:10:15.148Z,98.78
2018-07-26T21:12:44.292Z,98.75
2018-07-26T21:15:13.482Z,99.15
2018-07-26T21:17:42.615Z,98.94
2018-07-26T21:20:11.798Z,98.82
2018-07-26T21:22:40.971Z,98.83
2018-07-26T21:25:11.105Z,99.48
2018-07-26T21:27:40.269Z,99.22
2018-07-26T21:30:09.797Z,99.50
2018-07-26T21:32:39.002Z,99.68
2018-07-26T21:35:08.871Z,100.00
2018-07-26T21:37:38.022Z,99.77
2018-07-26T21:40:07.794Z,100.00
2018-07-26T21:42:37.171Z,100.00
2018-07-26T21:45:07.059Z,100.00
2018-07-26T21:47:36.254Z,100.00
2018-07-26T21:50:05.728Z,100.00
2018-07-26T21:52:34.897Z,100.00
2018-07-26T21:55:04.137Z,100.00
2018-07-26T21:57:33.297Z,100.00
2018-07-26T22:00:02.445Z,100.00
2018-07-26T22:02:31.741Z,100.00
2018-07-26T22:05:00.789Z,100.00
2018-07-26T22:07:29.944Z,100.00
2018-07-26T22:09:59.228Z,100.00
2018-07-26T22:12:28.389Z,100.00
2018-07-26T22:14:57.554Z,100.00
2018-07-26T22:17:26.725Z,100.00
2018-07-26T22:19:56.320Z,100.00
2018-07-26T22:22:25.648Z,100.00
2018-07-26T22:24:54.971Z,100.00
2018-07-26T22:27:24.113Z,100.00
2018-07-26T22:29:53.282Z,100.00
2018-07-26T22:32:23.410Z,100.00
2018-07-26T22:34:52.585Z,100.00
2018-07-26T22:37:21.752Z,100.00
2018-07-26T22:39:50.993Z,100.00
2018-07-26T22:42:20.145Z,100.00
2018-07-26T22:44:49.311Z,100.00
2018-07-26T22:47:18.481Z,100.00
2018-07-26T22:49:48.026Z,100.00
2018-07-26T22:52:17.185Z,100.00
2018-07-26T22:54:46.333Z,100.00
2018-07-26T22:57:15.591Z,100.00
2018-07-26T22:59:44.728Z,100.00
2018-07-26T23:02:13.908Z,100.00
2018-07-26T23:04:43.068Z,100.00
2018-07-26T23:07:12.244Z,100.00
2018-07-26T23:09:41.497Z,100.00
2018-07-26T23:12:10.656Z,100.00
2018-07-26T23:14:39.795Z,100.00
2018-07-26T23:17:09.185Z,100.00
2018-07-26T23:19:38.289Z,100.00
2018-07-26T23:22:07.585Z,100.00
2018-07-26T23:24:36.721Z,100.00
2018-07-26T23:27:05.980Z,100.00
2018-07-26T23:29:35.178Z,100.00
2018-07-26T23:32:04.362Z,100.00
2018-07-26T23:34:33.661Z,100.00
2018-07-26T23:37:02.814Z,100.00
2018-07-26T23:39:32.031Z,100.00
2018-07-26T23:42:01.186Z,100.00
2018-07-26T23:44:30.372Z,100.00
2018-07-26T23:46:59.601Z,100.00
2018-07-26T23:49:28.747Z,100.00
2018-07-26T23:51:58.267Z,100.00
2018-07-26T23:54:27.458Z,100.00
2018-07-26T23:56:56.616Z,100.00
2018-07-26T23:59:25.783Z,100.00
